Time;durP1;ratioP1;P1;durP2;ratioP2;P2;SDS_P1;SDS_P2;PMS_P1;PMS_P2;Temp;Humidity;BMP_temperature;BMP_pressure;BME280_temperature;BME280_humidity;BME280_pressure;Samples;Min_cycle;Max_cycle;Signal;HPM_P1;HPM_P2
2022/07/25 00:01:48;;;;;;;1.65;1.25;;;18.30;99.90;;;;;;5007032;28;20040;-78
2022/07/25 00:04:14;;;;;;;2.72;1.80;;;18.30;99.90;;;;;;5006537;28;20109;-78
2022/07/25 00:06:40;;;;;;;1.20;1.08;;;18.30;99.90;;;;;;5004974;28;20121;-78
2022/07/25 00:09:06;;;;;;;1.30;1.05;;;18.20;99.90;;;;;;5008323;28;20080;-78
2022/07/25 00:11:32;;;;;;;1.80;1.10;;;18.30;99.90;;;;;;5007422;28;20053;-78
2022/07/25 00:13:57;;;;;;;1.77;1.20;;;18.20;99.90;;;;;;5009108;28;20384;-78
2022/07/25 00:16:23;;;;;;;2.83;1.40;;;18.20;99.90;;;;;;5002261;28;20476;-78
2022/07/25 00:18:48;;;;;;;3.53;1.02;;;18.20;99.90;;;;;;5008371;28;20511;-77
2022/07/25 00:21:14;;;;;;;1.48;1.10;;;18.20;99.90;;;;;;5004173;28;20025;-78
2022/07/25 00:23:39;;;;;;;1.92;0.95;;;18.20;99.90;;;;;;5006199;28;20038;-78
2022/07/25 00:26:05;;;;;;;1.33;1.10;;;18.20;99.90;;;;;;5007677;28;20321;-78
2022/07/25 00:28:31;;;;;;;1.92;1.20;;;18.20;99.90;;;;;;5007829;28;20452;-78
2022/07/25 00:30:56;;;;;;;1.38;1.10;;;18.20;99.90;;;;;;5008898;28;20050;-78
2022/07/25 00:33:22;;;;;;;1.20;1.05;;;18.20;99.90;;;;;;5008036;28;20030;-78
2022/07/25 00:35:47;;;;;;;0.88;0.88;;;18.20;99.90;;;;;;5008005;28;20104;-78
2022/07/25 00:38:13;;;;;;;0.80;0.80;;;18.20;99.90;;;;;;5014367;28;20026;-78
2022/07/25 00:40:38;;;;;;;1.05;0.90;;;18.20;99.90;;;;;;5008637;28;20434;-78
2022/07/25 00:43:04;;;;;;;0.60;0.60;;;18.20;99.90;;;;;;5005351;28;20032;-78
2022/07/25 00:45:30;;;;;;;1.00;0.90;;;18.20;99.90;;;;;;5003759;28;20077;-78
2022/07/25 00:47:55;;;;;;;1.00;0.93;;;18.20;99.90;;;;;;5011185;28;20057;-78
2022/07/25 00:50:21;;;;;;;1.08;0.88;;;18.30;99.90;;;;;;5011628;28;20046;-78
2022/07/25 00:52:47;;;;;;;1.10;0.85;;;18.30;99.90;;;;;;5018021;28;20038;-78
2022/07/25 00:55:12;;;;;;;0.80;0.80;;;18.40;99.90;;;;;;5012009;28;20025;-78
2022/07/25 00:57:38;;;;;;;0.73;0.70;;;18.40;99.90;;;;;;5018403;28;20056;-78
2022/07/25 01:00:07;;;;;;;0.90;0.80;;;18.40;99.90;;;;;;5008667;28;20057;-78
2022/07/25 01:02:32;;;;;;;1.20;0.80;;;18.40;99.90;;;;;;5010788;28;20056;-78
2022/07/25 01:04:58;;;;;;;0.85;0.70;;;18.40;99.90;;;;;;4991093;28;20485;-78
2022/07/25 01:07:24;;;;;;;1.08;0.93;;;18.30;99.90;;;;;;5010763;28;20406;-78
2022/07/25 01:09:50;;;;;;;1.38;0.82;;;18.30;99.90;;;;;;5010078;28;20113;-77
2022/07/25 01:12:15;;;;;;;1.08;0.80;;;18.30;99.90;;;;;;5009022;28;20595;-78
2022/07/25 01:14:41;;;;;;;1.10;0.90;;;18.30;99.90;;;;;;5014199;28;20026;-78
2022/07/25 01:17:07;;;;;;;0.77;0.60;;;18.20;99.90;;;;;;5011556;28;20697;-78
2022/07/25 01:19:32;;;;;;;1.13;0.90;;;18.20;99.90;;;;;;5009398;28;20034;-78
2022/07/25 01:21:58;;;;;;;1.00;0.60;;;18.20;99.90;;;;;;5010534;28;20033;-77
2022/07/25 01:24:23;;;;;;;0.70;0.70;;;18.20;99.90;;;;;;5017787;28;20392;-78
2022/07/25 01:26:49;;;;;;;0.70;0.70;;;18.10;99.90;;;;;;5015211;28;20037;-78
2022/07/25 01:29:14;;;;;;;1.10;0.90;;;18.00;99.90;;;;;;5011063;28;20037;-78
2022/07/25 01:31:40;;;;;;;0.85;0.80;;;18.00;99.90;;;;;;5009418;28;20493;-77
2022/07/25 01:34:05;;;;;;;0.60;0.60;;;18.00;99.90;;;;;;5008553;28;20032;-77
2022/07/25 01:36:31;;;;;;;0.73;0.70;;;18.00;99.90;;;;;;5009174;28;20081;-78
2022/07/25 01:38:56;;;;;;;0.98;0.80;;;17.90;99.90;;;;;;5011595;28;20030;-77
2022/07/25 01:41:21;;;;;;;0.80;0.80;;;17.80;99.90;;;;;;5014617;28;20752;-77
2022/07/25 01:43:47;;;;;;;1.92;0.80;;;17.80;99.90;;;;;;5019149;28;20025;-77
2022/07/25 01:46:12;;;;;;;0.60;0.60;;;17.80;99.90;;;;;;5011201;28;20026;-78
2022/07/25 01:48:40;;;;;;;0.80;0.65;;;17.80;99.90;;;;;;5019627;28;20125;-78
2022/07/25 01:51:07;;;;;;;1.00;0.85;;;17.70;99.90;;;;;;5009654;28;20388;-78
2022/07/25 01:53:32;;;;;;;1.05;0.70;;;17.70;99.90;;;;;;5005746;28;20034;-78
2022/07/25 01:55:59;;;;;;;0.70;0.70;;;17.60;99.90;;;;;;5006338;28;20014;-78
2022/07/25 01:58:24;;;;;;;0.93;0.73;;;17.60;99.90;;;;;;5009619;28;20050;-78
2022/07/25 02:00:50;;;;;;;0.73;0.65;;;17.60;99.90;;;;;;5010118;28;20109;-78
2022/07/25 02:03:30;;;;;;;0.77;0.77;;;17.70;99.90;;;;;;5010130;28;20396;-77
2022/07/25 02:05:57;;;;;;;1.33;0.98;;;17.60;99.90;;;;;;5010667;28;20026;-78
2022/07/25 02:08:23;;;;;;;0.70;0.70;;;17.60;99.90;;;;;;5010038;28;20481;-79
2022/07/25 02:10:48;;;;;;;0.70;0.70;;;17.50;99.90;;;;;;5008644;28;20030;-78
2022/07/25 02:13:14;;;;;;;0.77;0.77;;;17.50;99.90;;;;;;5016896;28;20022;-78
2022/07/25 02:15:39;;;;;;;1.17;1.08;;;17.50;99.90;;;;;;5010890;28;20034;-78
2022/07/25 02:18:05;;;;;;;0.73;0.73;;;17.40;99.90;;;;;;5009133;28;20041;-78
2022/07/25 02:20:31;;;;;;;0.95;0.70;;;17.40;99.90;;;;;;5010382;28;20129;-78
2022/07/25 02:22:56;;;;;;;0.98;0.82;;;17.40;99.90;;;;;;5010443;28;20026;-77
2022/07/25 02:25:22;;;;;;;2.05;0.90;;;17.40;99.90;;;;;;5008332;28;20029;-77
2022/07/25 02:27:47;;;;;;;0.70;0.70;;;17.30;99.90;;;;;;5007197;28;20041;-77
2022/07/25 02:30:13;;;;;;;1.98;1.08;;;17.30;99.90;;;;;;5009866;28;20038;-78
2022/07/25 02:32:38;;;;;;;1.77;1.05;;;17.30;99.90;;;;;;5009483;28;20045;-78
2022/07/25 02:35:05;;;;;;;1.90;0.73;;;17.20;99.90;;;;;;5008352;28;20531;-78
2022/07/25 02:37:31;;;;;;;0.50;0.50;;;17.20;99.90;;;;;;5007226;28;20042;-78
2022/07/25 02:39:57;;;;;;;0.65;0.65;;;17.20;99.90;;;;;;5012993;28;20395;-78
2022/07/25 02:42:22;;;;;;;1.17;0.90;;;17.20;99.90;;;;;;5006989;28;20080;-78
2022/07/25 02:44:48;;;;;;;0.70;0.70;;;17.20;99.90;;;;;;5006793;28;20034;-78
2022/07/25 02:47:13;;;;;;;1.08;0.80;;;17.10;99.90;;;;;;5009860;28;20040;-78
2022/07/25 02:49:39;;;;;;;0.85;0.70;;;17.10;99.90;;;;;;5019334;28;20036;-78
2022/07/25 02:52:04;;;;;;;0.65;0.65;;;17.10;99.90;;;;;;5009296;28;20033;-78
2022/07/25 02:54:30;;;;;;;1.05;0.88;;;17.10;99.90;;;;;;5005688;28;20489;-77
2022/07/25 02:56:55;;;;;;;1.45;0.90;;;17.10;99.90;;;;;;5013870;28;20022;-78
2022/07/25 02:59:21;;;;;;;0.95;0.90;;;17.10;99.90;;;;;;5006409;28;20032;-78
2022/07/25 03:01:46;;;;;;;0.73;0.70;;;17.10;99.90;;;;;;5005091;28;20538;-78
2022/07/25 03:04:11;;;;;;;1.00;0.80;;;17.10;99.90;;;;;;5004642;28;20034;-78
2022/07/25 03:06:37;;;;;;;0.95;0.77;;;17.10;99.90;;;;;;5010549;28;20033;-79
2022/07/25 03:09:03;;;;;;;1.08;0.80;;;17.10;99.90;;;;;;5003756;28;20088;-78
2022/07/25 03:11:28;;;;;;;0.98;0.77;;;17.10;99.90;;;;;;5002903;28;20034;-78
2022/07/25 03:13:54;;;;;;;0.98;0.88;;;17.10;99.90;;;;;;5008469;28;20053;-78
2022/07/25 03:16:20;;;;;;;0.90;0.80;;;17.00;99.90;;;;;;5008238;28;20026;-78
2022/07/25 03:18:45;;;;;;;0.90;0.70;;;17.00;99.90;;;;;;5006436;28;20409;-78
2022/07/25 03:21:11;;;;;;;0.90;0.80;;;17.00;99.90;;;;;;5010615;28;20069;-77
2022/07/25 03:23:37;;;;;;;1.13;0.82;;;17.00;99.90;;;;;;5008563;28;20073;-78
2022/07/25 03:26:02;;;;;;;1.00;0.80;;;17.00;99.90;;;;;;5010166;28;20033;-77
2022/07/25 03:28:28;;;;;;;0.60;0.55;;;17.00;99.90;;;;;;5010391;28;20030;-77
2022/07/25 03:30:53;;;;;;;1.45;0.93;;;17.00;99.90;;;;;;5007812;28;20025;-78
2022/07/25 03:33:19;;;;;;;1.55;1.00;;;17.00;99.90;;;;;;5007982;28;20025;-78
2022/07/25 03:35:45;;;;;;;0.95;0.77;;;17.00;99.90;;;;;;5008416;28;20025;-77
2022/07/25 03:38:10;;;;;;;0.80;0.80;;;17.00;99.90;;;;;;5006738;28;20052;-78
2022/07/25 03:40:36;;;;;;;0.60;0.52;;;17.00;99.90;;;;;;5007264;28;20168;-78
2022/07/25 03:43:01;;;;;;;1.15;0.85;;;17.00;99.90;;;;;;5005483;28;20033;-77
2022/07/25 03:45:27;;;;;;;0.90;0.75;;;17.00;99.90;;;;;;5004860;28;20052;-78
2022/07/25 03:47:54;;;;;;;1.23;0.90;;;17.00;99.90;;;;;;5009049;28;20030;-78
2022/07/25 03:50:19;;;;;;;1.10;1.00;;;17.00;99.90;;;;;;5008359;28;20387;-78
2022/07/25 03:52:45;;;;;;;1.42;0.70;;;17.00;99.90;;;;;;5006244;28;20030;-78
2022/07/25 03:55:10;;;;;;;1.20;0.82;;;17.00;99.90;;;;;;5008974;28;20022;-78
2022/07/25 03:57:36;;;;;;;1.52;1.20;;;17.00;99.90;;;;;;5007601;28;20034;-78
2022/07/25 04:00:03;;;;;;;0.98;0.63;;;17.00;99.90;;;;;;5005314;28;20450;-78
2022/07/25 04:02:28;;;;;;;1.15;1.00;;;17.00;99.90;;;;;;5008494;28;20068;-78
2022/07/25 04:04:54;;;;;;;0.73;0.70;;;17.10;99.90;;;;;;5006236;28;20057;-78
2022/07/25 04:07:19;;;;;;;1.20;0.75;;;17.10;99.90;;;;;;5004012;28;20030;-78
2022/07/25 04:09:45;;;;;;;0.77;0.77;;;17.10;99.90;;;;;;5004215;28;20032;-78
2022/07/25 04:12:10;;;;;;;1.00;0.85;;;17.10;99.90;;;;;;5007313;28;20029;-78
2022/07/25 04:14:36;;;;;;;1.05;0.80;;;17.20;99.90;;;;;;5008259;28;20061;-78
2022/07/25 04:17:01;;;;;;;1.23;0.90;;;17.20;99.90;;;;;;5007017;28;20384;-78
2022/07/25 04:19:27;;;;;;;1.00;0.82;;;17.20;99.90;;;;;;5008168;28;20485;-78
2022/07/25 04:21:53;;;;;;;1.40;0.93;;;17.20;99.90;;;;;;5007389;28;20042;-78
2022/07/25 04:24:19;;;;;;;0.93;0.80;;;17.20;99.90;;;;;;5014309;28;20032;-78
2022/07/25 04:26:44;;;;;;;1.20;0.82;;;17.20;99.90;;;;;;5009840;28;20029;-78
2022/07/25 04:29:10;;;;;;;0.65;0.63;;;17.20;99.90;;;;;;5012363;28;20038;-78
2022/07/25 04:31:35;;;;;;;0.98;0.70;;;17.20;99.90;;;;;;5010462;28;20026;-78
2022/07/25 04:34:01;;;;;;;0.82;0.82;;;17.30;99.90;;;;;;5011806;28;20485;-78
2022/07/25 04:36:26;;;;;;;1.13;1.02;;;17.30;99.90;;;;;;5010792;28;20084;-77
2022/07/25 04:38:52;;;;;;;1.35;1.02;;;17.30;99.90;;;;;;5019558;28;20517;-78
2022/07/25 04:41:18;;;;;;;0.88;0.82;;;17.40;99.90;;;;;;5010695;28;20061;-78
2022/07/25 04:43:43;;;;;;;4.15;0.80;;;17.40;99.90;;;;;;5017118;28;20454;-78
2022/07/25 04:46:09;;;;;;;1.45;0.70;;;17.40;99.90;;;;;;5010812;28;20034;-78
2022/07/25 04:48:34;;;;;;;0.70;0.70;;;17.50;99.90;;;;;;5011500;28;20098;-78
2022/07/25 04:51:00;;;;;;;0.80;0.77;;;17.50;99.90;;;;;;5009398;28;20083;-77
2022/07/25 04:53:26;;;;;;;0.80;0.80;;;17.50;99.90;;;;;;5010818;28;20026;-78
2022/07/25 04:55:51;;;;;;;0.95;0.77;;;17.60;99.90;;;;;;5011200;28;20029;-78
2022/07/25 04:58:17;;;;;;;0.82;0.82;;;17.70;99.90;;;;;;5010388;28;20550;-77
2022/07/25 05:00:42;;;;;;;1.33;0.90;;;17.90;99.90;;;;;;5013313;28;20025;-78
2022/07/25 05:03:08;;;;;;;7.45;1.65;;;18.10;99.40;;;;;;5012471;28;20017;-78
2022/07/25 05:05:33;;;;;;;0.93;0.88;;;18.20;99.90;;;;;;5014643;28;20026;-79
2022/07/25 05:07:59;;;;;;;2.15;1.17;;;18.30;99.90;;;;;;5015507;28;20153;-78
2022/07/25 05:10:26;;;;;;;0.68;0.68;;;18.40;99.20;;;;;;5011199;28;20032;-77
2022/07/25 05:12:52;;;;;;;1.48;1.00;;;18.50;98.80;;;;;;5010076;28;20133;-78
2022/07/25 05:15:17;;;;;;;1.15;1.00;;;18.60;95.90;;;;;;5009140;28;20504;-77
2022/07/25 05:17:43;;;;;;;0.80;0.80;;;18.70;95.60;;;;;;5008627;28;20073;-78
2022/07/25 05:20:09;;;;;;;1.40;0.98;;;18.90;93.60;;;;;;5006500;28;20037;-78
2022/07/25 05:22:35;;;;;;;1.38;0.90;;;19.00;94.00;;;;;;5009453;28;20025;-79
2022/07/25 05:25:01;;;;;;;0.68;0.68;;;19.00;93.50;;;;;;5012475;28;20447;-78
2022/07/25 05:27:27;;;;;;;1.10;0.80;;;19.20;92.30;;;;;;5014294;28;20061;-78
2022/07/25 05:29:52;;;;;;;0.80;0.80;;;19.30;90.80;;;;;;5010297;28;20057;-78
2022/07/25 05:32:18;;;;;;;1.27;1.10;;;19.40;92.20;;;;;;5013126;28;20030;-78
2022/07/25 05:34:44;;;;;;;0.75;0.75;;;19.50;90.50;;;;;;5012254;28;20033;-78
2022/07/25 05:37:10;;;;;;;1.80;0.90;;;19.60;89.70;;;;;;5010271;28;20497;-78
2022/07/25 05:39:38;;;;;;;1.70;1.20;;;19.70;88.40;;;;;;5010020;28;20084;-78
2022/07/25 05:42:04;;;;;;;2.85;1.00;;;19.80;89.80;;;;;;5010600;28;20048;-78
2022/07/25 05:44:29;;;;;;;1.05;0.90;;;19.90;88.50;;;;;;5009605;28;20026;-78
2022/07/25 05:46:55;;;;;;;1.05;0.93;;;20.10;87.70;;;;;;5010477;28;20030;-78
2022/07/25 05:49:20;;;;;;;1.08;0.98;;;20.20;86.20;;;;;;5009840;28;20042;-78
2022/07/25 05:51:46;;;;;;;1.55;1.17;;;20.30;85.30;;;;;;5009135;28;20029;-76
2022/07/25 05:54:11;;;;;;;1.30;1.02;;;20.30;85.60;;;;;;5010803;28;20480;-77
2022/07/25 05:56:37;;;;;;;1.42;1.10;;;20.30;85.80;;;;;;5011464;28;20129;-79
2022/07/25 05:59:02;;;;;;;1.13;1.02;;;20.40;85.00;;;;;;5015996;28;20029;-78
2022/07/25 06:01:28;;;;;;;2.88;1.48;;;20.50;84.90;;;;;;5009301;28;20124;-78
2022/07/25 06:03:53;;;;;;;1.40;1.13;;;20.50;84.80;;;;;;5015876;28;20036;-79
2022/07/25 06:06:19;;;;;;;1.67;1.30;;;20.60;83.80;;;;;;5011087;28;20030;-77
2022/07/25 06:08:44;;;;;;;1.58;1.15;;;20.60;86.00;;;;;;5009476;28;20145;-78
2022/07/25 06:11:09;;;;;;;1.25;0.93;;;20.70;83.90;;;;;;5003628;28;20129;-78
2022/07/25 06:13:35;;;;;;;1.30;1.20;;;20.70;84.10;;;;;;5010342;28;20068;-77
2022/07/25 06:16:01;;;;;;;1.58;1.08;;;20.80;83.20;;;;;;5007856;28;20384;-76
2022/07/25 06:18:27;;;;;;;1.35;1.25;;;20.90;82.00;;;;;;5010346;28;20572;-77
2022/07/25 06:20:52;;;;;;;3.35;1.20;;;21.10;82.50;;;;;;5009373;28;20053;-77
2022/07/25 06:23:18;;;;;;;2.22;1.20;;;21.20;82.40;;;;;;5008047;28;20026;-76
2022/07/25 06:25:45;;;;;;;2.45;1.58;;;21.10;83.30;;;;;;5009337;28;20029;-76
2022/07/25 06:28:13;;;;;;;2.20;1.42;;;21.20;82.50;;;;;;5010513;28;20273;-77
2022/07/25 06:30:45;;;;;;;4.50;1.30;;;21.30;80.90;;;;;;5011807;28;20022;-75
2022/07/25 06:33:11;;;;;;;3.55;1.58;;;21.40;81.10;;;;;;5007726;28;20396;-76
2022/07/25 06:35:36;;;;;;;1.55;1.40;;;21.60;79.30;;;;;;5008873;28;20022;-77
2022/07/25 06:38:03;;;;;;;1.55;1.40;;;21.70;78.80;;;;;;5009112;28;20033;-77
2022/07/25 06:40:28;;;;;;;1.88;1.23;;;21.90;78.40;;;;;;5007242;28;20087;-76
2022/07/25 06:42:54;;;;;;;1.52;1.30;;;21.90;78.50;;;;;;5004656;28;20037;-76
2022/07/25 06:45:20;;;;;;;2.22;1.38;;;21.90;78.70;;;;;;5008661;28;20116;-77
2022/07/25 06:47:46;;;;;;;2.15;1.30;;;22.00;78.90;;;;;;5007650;28;20061;-77
2022/07/25 06:50:15;;;;;;;1.40;1.30;;;22.10;78.30;;;;;;5012717;28;20065;-78
2022/07/25 06:52:41;;;;;;;2.10;1.40;;;22.20;80.20;;;;;;5011598;28;20437;-77
2022/07/25 06:55:08;;;;;;;2.60;1.67;;;22.20;79.10;;;;;;5009517;28;20026;-77
2022/07/25 06:57:34;;;;;;;2.03;1.50;;;22.30;78.90;;;;;;5010072;28;20030;-77
2022/07/25 07:00:00;;;;;;;1.98;1.50;;;22.30;79.50;;;;;;5001157;28;20485;-77
2022/07/25 07:02:25;;;;;;;1.83;1.27;;;22.40;77.70;;;;;;5014946;28;20075;-76
2022/07/25 07:04:51;;;;;;;3.33;1.75;;;22.60;79.20;;;;;;5009062;28;20034;-76
2022/07/25 07:07:16;;;;;;;1.45;1.23;;;22.60;77.30;;;;;;5010324;28;20030;-77
2022/07/25 07:09:43;;;;;;;3.10;1.60;;;22.80;77.50;;;;;;5008655;28;20018;-76
2022/07/25 07:12:09;;;;;;;2.78;1.85;;;23.00;76.70;;;;;;5008821;28;20497;-77
2022/07/25 07:14:36;;;;;;;1.92;1.40;;;23.00;77.20;;;;;;5001974;28;20026;-76
2022/07/25 07:17:02;;;;;;;3.00;1.40;;;23.00;75.50;;;;;;5008508;28;20032;-76
2022/07/25 07:19:28;;;;;;;6.28;1.80;;;23.00;76.00;;;;;;5001516;28;20700;-77
2022/07/25 07:21:54;;;;;;;4.57;1.50;;;23.20;75.80;;;;;;5008748;28;20121;-78
2022/07/25 07:24:19;;;;;;;3.47;1.90;;;23.30;75.10;;;;;;5006578;28;20034;-77
2022/07/25 07:26:45;;;;;;;1.40;1.30;;;23.40;74.80;;;;;;5009140;28;20022;-77
2022/07/25 07:29:10;;;;;;;2.55;1.95;;;23.40;76.00;;;;;;5003021;28;20049;-76
2022/07/25 07:31:35;;;;;;;2.58;1.92;;;23.50;73.80;;;;;;5005873;28;20018;-76
2022/07/25 07:34:01;;;;;;;1.85;1.52;;;23.60;74.50;;;;;;5009099;28;20472;-77
2022/07/25 07:36:27;;;;;;;2.55;1.90;;;23.70;74.10;;;;;;5018768;28;20013;-76
2022/07/25 07:38:53;;;;;;;2.03;1.83;;;23.90;73.90;;;;;;5007123;28;20030;-76
2022/07/25 07:41:18;;;;;;;1.92;1.70;;;24.00;77.40;;;;;;5005503;28;20389;-76
2022/07/25 07:43:44;;;;;;;3.67;1.90;;;24.10;74.00;;;;;;5007427;28;20033;-76
2022/07/25 07:46:10;;;;;;;1.70;1.60;;;24.20;71.90;;;;;;5008251;28;20442;-77
2022/07/25 07:49:02;;;;;;;2.70;1.63;;;24.20;73.30;;;;;;5008122;28;20030;-77
2022/07/25 07:51:27;;;;;;;2.90;1.80;;;24.30;71.80;;;;;;4998661;28;20116;-76
2022/07/25 07:56:37;;;;;;;2.10;1.90;;;24.60;74.20;;;;;;5007287;28;20080;-75
2022/07/25 07:59:03;;;;;;;3.00;2.20;;;24.60;69.40;;;;;;5008063;28;20243;-74
2022/07/25 08:01:29;;;;;;;3.50;2.30;;;24.70;70.60;;;;;;5008310;28;20032;-75
2022/07/25 08:03:54;;;;;;;2.13;1.83;;;24.70;70.60;;;;;;5013226;28;20030;-75
2022/07/25 08:06:20;;;;;;;5.03;2.05;;;24.80;68.90;;;;;;5004680;28;20037;-75
2022/07/25 08:08:45;;;;;;;2.83;1.80;;;24.80;69.10;;;;;;5011116;28;20121;-75
2022/07/25 08:11:11;;;;;;;3.72;2.28;;;24.90;69.00;;;;;;5012560;28;20026;-74
2022/07/25 08:13:37;;;;;;;6.47;2.40;;;25.10;67.40;;;;;;5008474;28;20343;-77
2022/07/25 08:16:03;;;;;;;2.80;2.15;;;25.20;66.80;;;;;;5010813;28;20449;-81
2022/07/25 08:18:31;;;;;;;3.00;2.38;;;25.20;68.00;;;;;;5006987;28;20080;-75
2022/07/25 08:20:57;;;;;;;2.67;2.13;;;25.50;70.90;;;;;;5008700;28;20449;-75
2022/07/25 08:23:24;;;;;;;2.92;2.13;;;25.60;66.00;;;;;;5008547;28;20105;-76
2022/07/25 08:25:50;;;;;;;2.95;2.42;;;25.60;66.90;;;;;;5009563;28;20515;-76
2022/07/25 08:28:15;;;;;;;2.78;2.10;;;25.70;67.40;;;;;;5010525;28;20026;-76
2022/07/25 08:30:41;;;;;;;3.25;2.20;;;25.90;70.20;;;;;;5005167;28;20030;-76
2022/07/25 08:33:09;;;;;;;4.93;1.98;;;26.00;67.50;;;;;;5009149;28;20050;-76
2022/07/25 08:35:35;;;;;;;3.13;2.05;;;26.10;68.50;;;;;;4997159;28;20476;-75
2022/07/25 08:38:03;;;;;;;2.90;2.25;;;26.10;67.20;;;;;;5004236;28;20403;-90
2022/07/25 08:40:30;;;;;;;2.60;2.20;;;26.10;65.00;;;;;;5000420;28;20038;-75
2022/07/25 08:42:57;;;;;;;4.03;2.20;;;26.10;65.00;;;;;;5001895;28;20428;-75
2022/07/25 08:45:24;;;;;;;3.38;2.50;;;26.30;65.90;;;;;;5003233;28;20030;-76
2022/07/25 08:47:51;;;;;;;3.42;2.10;;;26.30;64.80;;;;;;5011206;28;20033;-79
2022/07/25 08:50:19;;;;;;;3.38;2.17;;;26.40;67.50;;;;;;4989958;28;20036;-82
2022/07/25 08:52:49;;;;;;;3.10;2.47;;;26.40;65.70;;;;;;5017348;28;20086;-80
2022/07/25 08:55:20;;;;;;;2.58;2.20;;;26.60;64.60;;;;;;5007656;28;20026;-74
2022/07/25 08:57:48;;;;;;;8.68;2.90;;;26.70;64.70;;;;;;5007517;28;20041;-79
2022/07/25 09:00:22;;;;;;;4.05;2.72;;;26.70;64.30;;;;;;5012159;28;20064;-81
2022/07/25 09:03:00;;;;;;;4.72;1.98;;;26.90;64.90;;;;;;5009966;28;20033;-79
2022/07/25 09:05:27;;;;;;;4.35;2.10;;;27.10;62.90;;;;;;5009670;28;20034;-76
2022/07/25 09:07:55;;;;;;;5.07;3.28;;;27.10;63.30;;;;;;5010135;28;20033;-76
2022/07/25 10:03:19;;;;;;;3.83;2.95;;;29.50;58.30;;;;;;5105640;27;20323;-79
2022/07/25 10:06:01;;;;;;;3.97;3.13;;;29.30;59.40;;;;;;5096357;28;20025;-79
2022/07/25 10:08:27;;;;;;;4.35;2.60;;;29.60;59.50;;;;;;5076871;28;20031;-80
2022/07/25 10:10:53;;;;;;;6.00;3.40;;;29.80;59.80;;;;;;5081015;28;20056;-79
2022/07/25 10:13:29;;;;;;;6.85;3.15;;;30.10;57.60;;;;;;5087692;28;20094;-79
2022/07/25 10:15:55;;;;;;;5.50;3.28;;;30.10;56.70;;;;;;5071368;28;20078;-80
2022/07/25 10:18:26;;;;;;;3.72;3.10;;;30.00;56.10;;;;;;5084097;28;20422;-82
2022/07/25 10:21:13;;;;;;;4.30;2.95;;;29.90;56.30;;;;;;5081228;28;20054;-81
2022/07/25 10:23:39;;;;;;;4.30;3.28;;;30.00;57.30;;;;;;5099538;28;20085;-80
2022/07/25 10:26:18;;;;;;;4.88;3.20;;;30.20;56.10;;;;;;5088386;28;20431;-81
2022/07/25 10:28:49;;;;;;;4.97;2.97;;;30.30;55.80;;;;;;5080332;28;20033;-81
2022/07/25 10:31:20;;;;;;;4.85;3.40;;;30.30;54.90;;;;;;5081066;28;20036;-80
2022/07/25 10:33:51;;;;;;;3.88;3.08;;;30.40;55.00;;;;;;5083223;28;20034;-81
2022/07/25 10:36:18;;;;;;;13.43;4.25;;;30.40;55.50;;;;;;5072930;28;20166;-80
2022/07/25 10:38:45;;;;;;;5.90;2.80;;;30.60;55.90;;;;;;5115463;28;20028;-78
2022/07/25 10:41:12;;;;;;;4.82;3.20;;;30.70;54.00;;;;;;5080277;28;20032;-79
2022/07/25 10:43:39;;;;;;;4.45;2.78;;;31.00;53.90;;;;;;5085163;28;20567;-80
2022/07/25 10:46:13;;;;;;;4.20;3.40;;;31.10;53.10;;;;;;5085264;28;20068;-81
2022/07/25 10:48:40;;;;;;;4.35;3.15;;;31.30;51.70;;;;;;5101499;28;20104;-80
2022/07/25 10:51:11;;;;;;;5.05;3.35;;;31.40;51.40;;;;;;5072467;28;20530;-81
2022/07/25 10:53:44;;;;;;;4.10;3.13;;;31.60;51.90;;;;;;5077422;28;20028;-80
2022/07/25 10:56:12;;;;;;;8.25;3.70;;;31.70;51.10;;;;;;5075933;28;20478;-81
2022/07/25 10:58:55;;;;;;;5.63;3.88;;;31.80;50.50;;;;;;5079871;28;20028;-81
2022/07/25 11:01:27;;;;;;;4.05;3.05;;;31.70;51.00;;;;;;5075590;28;20379;-80
2022/07/25 11:03:56;;;;;;;3.58;2.95;;;31.90;50.60;;;;;;5077469;28;20025;-82
2022/07/25 11:06:39;;;;;;;3.78;3.08;;;32.10;50.40;;;;;;5075876;28;20035;-82
2022/07/25 11:09:20;;;;;;;6.00;3.33;;;32.10;49.90;;;;;;5073381;28;20437;-77
2022/07/25 11:11:49;;;;;;;;;;;32.20;49.40;;;;;;5070931;28;20032;-80
2022/07/25 11:14:16;;;;;;;4.00;3.28;;;32.30;49.30;;;;;;5057815;28;19915;-77
2022/07/25 11:16:48;;;;;;;3.92;3.10;;;32.20;49.10;;;;;;5059193;28;20449;-76
2022/07/25 11:19:25;;;;;;;3.72;3.10;;;32.30;49.90;;;;;;5058320;28;20033;-77
2022/07/25 11:21:57;;;;;;;9.05;3.97;;;32.30;50.00;;;;;;5059157;28;20416;-76
2022/07/25 11:24:37;;;;;;;4.32;3.67;;;32.50;48.40;;;;;;5053399;28;20035;-78
2022/07/25 11:27:03;;;;;;;3.88;2.83;;;32.90;49.20;;;;;;5062633;28;20021;-76
2022/07/25 11:29:28;;;;;;;4.15;3.08;;;33.20;47.50;;;;;;5065242;28;20086;-77
2022/07/25 11:31:58;;;;;;;4.00;3.10;;;33.00;47.20;;;;;;5062065;28;20473;-76
2022/07/25 11:34:36;;;;;;;4.15;3.03;;;33.30;47.10;;;;;;5061375;28;20036;-76
2022/07/25 11:37:04;;;;;;;3.95;3.40;;;33.50;47.30;;;;;;5054680;28;20169;-76
2022/07/25 11:39:32;;;;;;;3.75;3.05;;;33.50;47.80;;;;;;5049857;28;20025;-76
2022/07/25 11:42:08;;;;;;;3.38;2.78;;;31.90;47.60;;;;;;5057926;28;20029;-76
2022/07/25 11:44:39;;;;;;;3.38;2.95;;;31.60;48.80;;;;;;5056841;28;20050;-76
2022/07/25 11:47:21;;;;;;;3.78;2.85;;;32.20;45.80;;;;;;5062830;28;20028;-76
2022/07/25 11:49:48;;;;;;;4.32;3.40;;;32.80;44.90;;;;;;5066029;28;20475;-76
2022/07/25 11:52:21;;;;;;;4.22;2.80;;;31.70;47.40;;;;;;5067558;28;20024;-76
2022/07/25 11:55:00;;;;;;;4.82;3.58;;;31.90;47.60;;;;;;5047621;28;20059;-76
2022/07/25 11:57:29;;;;;;;4.63;3.25;;;32.70;46.80;;;;;;5048853;28;20029;-76
2022/07/25 11:59:55;;;;;;;4.10;3.10;;;32.00;47.20;;;;;;5050676;28;20060;-75
2022/07/25 12:02:32;;;;;;;4.70;3.15;;;32.70;45.50;;;;;;5052596;28;20816;-76
2022/07/25 12:05:06;;;;;;;5.90;3.03;;;33.50;44.60;;;;;;5058375;28;20036;-76
2022/07/25 12:07:49;;;;;;;5.18;3.35;;;32.70;44.80;;;;;;5053818;28;20043;-75
2022/07/25 12:10:22;;;;;;;5.07;3.33;;;31.40;48.10;;;;;;5061376;28;20033;-76
2022/07/25 12:12:50;;;;;;;3.50;2.78;;;31.70;47.20;;;;;;5052013;28;20035;-76
2022/07/25 12:15:19;;;;;;;5.15;3.50;;;32.30;47.30;;;;;;5053787;28;20498;-75
2022/07/25 12:17:44;;;;;;;4.57;2.90;;;32.20;46.20;;;;;;5047048;28;20033;-76
2022/07/25 12:20:14;;;;;;;4.95;3.13;;;32.50;46.00;;;;;;5045898;28;20043;-75
2022/07/25 12:22:40;;;;;;;3.53;2.95;;;32.60;46.90;;;;;;5038983;28;20029;-76
2022/07/25 12:25:06;;;;;;;4.32;3.20;;;33.30;44.20;;;;;;5046777;28;20035;-76
2022/07/25 12:27:32;;;;;;;3.72;3.13;;;33.00;44.80;;;;;;5047453;28;20554;-76
2022/07/25 12:29:57;;;;;;;4.47;3.38;;;32.80;45.90;;;;;;5050830;28;20498;-76
2022/07/25 12:32:23;;;;;;;4.43;3.45;;;32.10;46.80;;;;;;5052478;28;20041;-76
2022/07/25 12:34:48;;;;;;;4.25;3.65;;;32.70;46.20;;;;;;5045948;28;20032;-76
2022/07/25 12:37:14;;;;;;;3.92;3.38;;;34.00;45.00;;;;;;5052025;28;20020;-75
2022/07/25 12:39:39;;;;;;;4.50;3.53;;;34.50;44.30;;;;;;5051915;28;21716;-76
2022/07/25 12:42:05;;;;;;;4.20;2.95;;;35.60;40.80;;;;;;5045568;28;20040;-76
2022/07/25 12:44:30;;;;;;;3.97;3.17;;;35.30;40.30;;;;;;5054581;28;20028;-76
2022/07/25 12:46:55;;;;;;;3.30;2.97;;;34.40;42.00;;;;;;5061621;28;20029;-83
2022/07/25 12:49:21;;;;;;;4.70;3.08;;;34.60;42.00;;;;;;5051362;28;20025;-76
2022/07/25 12:51:46;;;;;;;5.57;3.10;;;35.60;40.10;;;;;;5048504;28;20115;-76
2022/07/25 12:54:12;;;;;;;3.67;3.13;;;35.70;39.30;;;;;;5056314;28;20032;-77
2022/07/25 12:56:37;;;;;;;4.10;3.00;;;36.60;38.20;;;;;;5055056;28;20035;-76
2022/07/25 12:59:03;;;;;;;3.70;3.08;;;36.50;38.50;;;;;;5056716;28;20758;-75
2022/07/25 13:01:28;;;;;;;4.20;3.38;;;36.50;38.20;;;;;;5049795;28;20109;-75
2022/07/25 13:03:54;;;;;;;3.88;3.40;;;36.20;40.40;;;;;;5051745;28;20063;-75
2022/07/25 13:06:19;;;;;;;6.32;3.72;;;35.50;39.70;;;;;;5036148;28;20468;-75
2022/07/25 13:08:45;;;;;;;4.45;3.30;;;35.00;39.80;;;;;;5041405;28;20119;-76
2022/07/25 13:11:11;;;;;;;4.90;3.22;;;34.70;40.40;;;;;;5038984;28;20107;-75
2022/07/25 13:13:37;;;;;;;3.67;3.28;;;33.40;42.80;;;;;;5045702;28;20134;-76
2022/07/25 13:16:02;;;;;;;4.43;3.22;;;33.40;43.70;;;;;;5048296;28;20834;-80
2022/07/25 13:18:29;;;;;;;3.22;2.92;;;34.20;41.70;;;;;;5042431;28;20503;-75
2022/07/25 13:20:54;;;;;;;6.20;3.42;;;34.60;41.70;;;;;;5050181;28;20043;-75
2022/07/25 13:23:20;;;;;;;4.05;3.22;;;35.60;41.40;;;;;;5033803;28;20423;-76
2022/07/25 13:25:45;;;;;;;4.78;3.25;;;35.70;40.80;;;;;;5050567;28;20467;-76
2022/07/25 13:28:11;;;;;;;4.03;3.50;;;35.00;40.20;;;;;;5050202;28;20033;-76
2022/07/25 13:30:36;;;;;;;3.35;2.72;;;35.00;41.70;;;;;;5059761;28;20542;-76
2022/07/25 13:33:02;;;;;;;4.07;3.40;;;35.10;42.00;;;;;;5055214;28;20028;-75
2022/07/25 13:35:27;;;;;;;6.38;3.17;;;33.50;43.30;;;;;;5062454;28;20153;-75
2022/07/25 13:37:53;;;;;;;4.95;3.05;;;32.50;45.40;;;;;;5042814;28;20047;-75
2022/07/25 13:40:18;;;;;;;3.72;3.25;;;32.80;44.00;;;;;;5051596;28;20440;-72
2022/07/25 13:42:44;;;;;;;3.63;3.17;;;33.20;43.50;;;;;;5054930;28;20020;-82